Time;durP1;ratioP1;P1;durP2;ratioP2;P2;SDS_P1;SDS_P2;PMS_P1;PMS_P2;Temp;Humidity;BMP_temperature;BMP_pressure;BME280_temperature;BME280_humidity;BME280_pressure;Samples;Min_cycle;Max_cycle;Signal;HPM_P1;HPM_P2
2024/02/05 00:00:17;;;;;;;17.42;4.20;;;;;;;;;;5057707;28;20056;-77
2024/02/05 00:02:43;;;;;;;20.38;4.18;;;;;;;;;;5080358;28;20040;-78
2024/02/05 00:05:10;;;;;;;22.55;4.28;;;;;;;;;;5080871;28;20107;-79
2024/02/05 00:07:37;;;;;;;15.30;3.40;;;;;;;;;;5061343;28;20511;-78
2024/02/05 00:10:07;;;;;;;20.73;4.80;;;;;;;;;;5064594;28;20445;-78
2024/02/05 00:12:34;;;;;;;24.52;5.75;;;;;;;;;;5068578;28;20044;-77
2024/02/05 00:15:01;;;;;;;23.15;5.07;;;;;;;;;;5080102;28;20048;-75
2024/02/05 00:17:27;;;;;;;17.55;3.67;;;;;;;;;;5077832;28;20059;-76
2024/02/05 00:19:53;;;;;;;21.40;3.85;;;;;;;;;;5091033;28;20048;-77
2024/02/05 00:22:20;;;;;;;25.98;4.85;;;;;;;;;;5066505;28;20044;-77
2024/02/05 00:24:46;;;;;;;25.40;5.05;;;;;;;;;;5069744;28;20041;-77
2024/02/05 00:27:13;;;;;;;21.58;3.60;;;;;;;;;;5078112;28;20097;-77
2024/02/05 00:29:39;;;;;;;23.48;4.22;;;;;;;;;;5057072;28;20044;-78
2024/02/05 00:32:06;;;;;;;19.20;3.90;;;;;;;;;;5080852;28;20058;-76
2024/02/05 00:34:32;;;;;;;19.63;4.03;;;;;;;;;;5083957;28;20500;-77
2024/02/05 00:36:59;;;;;;;24.00;4.20;;;;;;;;;;5067035;28;20175;-77
2024/02/05 00:39:26;;;;;;;22.30;4.97;;;;;;;;;;5075375;28;20507;-77
2024/02/05 00:41:52;;;;;;;18.48;3.75;;;;;;;;;;5067300;28;20039;-76
2024/02/05 00:44:18;;;;;;;20.15;3.95;;;;;;;;;;5080020;28;20055;-76
2024/02/05 00:46:45;;;;;;;18.83;4.50;;;;;;;;;;5054841;28;20088;-73
2024/02/05 00:49:11;;;;;;;29.08;4.90;;;;;;;;;;5075282;28;20055;-73
2024/02/05 00:51:38;;;;;;;21.08;4.25;;;;;;;;;;5071238;28;20056;-72
2024/02/05 00:54:04;;;;;;;24.75;4.53;;;;;;;;;;5068951;28;20420;-71
2024/02/05 00:56:33;;;;;;;21.40;4.55;;;;;;;;;;5078673;28;20476;-73
2024/02/05 00:59:00;;;;;;;25.88;5.00;;;;;;;;;;5075306;28;20523;-73
2024/02/05 01:01:27;;;;;;;19.13;4.43;;;;;;;;;;5061256;28;20841;-73
2024/02/05 01:03:53;;;;;;;21.13;4.18;;;;;;;;;;5065979;28;20052;-73
2024/02/05 01:06:20;;;;;;;24.88;5.10;;;;;;;;;;5071660;28;20102;-72
2024/02/05 01:08:47;;;;;;;30.63;5.20;;;;;;;;;;5076909;28;20051;-72
2024/02/05 01:11:15;;;;;;;21.48;4.95;;;;;;;;;;5059006;28;20701;-72
2024/02/05 01:13:42;;;;;;;;;;;;;;;;;;5083779;28;20072;-73
2024/02/05 01:16:09;;;;;;;26.90;4.53;;;;;;;;;;5055683;28;19924;-72
2024/02/05 01:18:36;;;;;;;20.38;4.45;;;;;;;;;;5060893;28;20051;-71
2024/02/05 01:21:04;;;;;;;21.70;4.63;;;;;;;;;;5069676;28;20048;-71
2024/02/05 01:23:31;;;;;;;21.35;5.05;;;;;;;;;;5078018;28;20525;-72
2024/02/05 01:25:57;;;;;;;25.48;4.63;;;;;;;;;;5080096;28;20102;-72
2024/02/05 01:28:24;;;;;;;27.60;5.55;;;;;;;;;;5076230;28;20156;-71
2024/02/05 01:30:50;;;;;;;24.63;4.50;;;;;;;;;;5085810;28;20044;-73
2024/02/05 01:33:17;;;;;;;22.83;4.97;;;;;;;;;;5081327;28;20051;-74
2024/02/05 01:35:44;;;;;;;24.50;5.22;;;;;;;;;;5068131;28;20118;-73
2024/02/05 01:38:10;;;;;;;29.90;5.30;;;;;;;;;;5085854;28;20048;-72
2024/02/05 01:40:38;;;;;;;23.75;5.47;;;;;;;;;;5076926;28;20055;-72
2024/02/05 01:43:04;;;;;;;30.13;4.88;;;;;;;;;;5068866;28;20044;-76
2024/02/05 01:45:31;;;;;;;24.08;4.85;;;;;;;;;;5063061;28;20077;-74
2024/02/05 01:47:57;;;;;;;28.50;4.72;;;;;;;;;;5087919;28;20142;-72
2024/02/05 01:50:24;;;;;;;28.80;4.78;;;;;;;;;;5087613;28;20052;-72
2024/02/05 01:52:51;;;;;;;18.30;4.00;;;;;;;;;;5075175;28;20052;-72
2024/02/05 01:55:20;;;;;;;27.02;5.03;;;;;;;;;;5066014;28;20036;-71
2024/02/05 01:57:47;;;;;;;24.10;4.53;;;;;;;;;;5085591;28;20167;-72
2024/02/05 02:00:14;;;;;;;26.30;5.00;;;;;;;;;;5085670;28;20052;-72
2024/02/05 02:02:42;;;;;;;35.85;6.50;;;;;;;;;;5080163;28;20452;-72
2024/02/05 02:05:09;;;;;;;19.27;4.40;;;;;;;;;;5084907;28;20052;-72
2024/02/05 02:07:36;;;;;;;22.48;4.65;;;;;;;;;;5078388;28;20047;-73
2024/02/05 02:10:04;;;;;;;24.20;4.60;;;;;;;;;;5078584;28;20047;-72
2024/02/05 02:12:30;;;;;;;20.75;4.50;;;;;;;;;;5087841;28;20059;-74
2024/02/05 02:14:57;;;;;;;24.20;5.75;;;;;;;;;;5058336;28;20143;-73
2024/02/05 02:17:25;;;;;;;25.20;4.63;;;;;;;;;;5078194;28;20056;-73
2024/02/05 02:19:52;;;;;;;37.42;5.30;;;;;;;;;;5080048;28;20844;-74
2024/02/05 02:22:33;;;;;;;33.63;5.15;;;;;;;;;;5079561;28;20068;-73
2024/02/05 02:25:00;;;;;;;25.70;4.13;;;;;;;;;;5067331;28;20044;-73
2024/02/05 02:27:26;;;;;;;26.10;4.68;;;;;;;;;;5079554;28;20451;-72
2024/02/05 02:29:53;;;;;;;32.75;6.13;;;;;;;;;;5067969;28;20052;-73
2024/02/05 02:32:25;;;;;;;39.75;6.00;;;;;;;;;;5063518;28;20051;-73
2024/02/05 02:34:54;;;;;;;26.23;4.63;;;;;;;;;;5083649;28;20401;-74
2024/02/05 02:37:22;;;;;;;41.05;6.85;;;;;;;;;;5079919;28;20131;-74
2024/02/05 02:39:55;;;;;;;33.45;5.72;;;;;;;;;;5086400;28;20062;-73
2024/02/05 02:42:23;;;;;;;27.23;5.45;;;;;;;;;;5070198;28;20527;-74
2024/02/05 02:44:51;;;;;;;25.63;4.47;;;;;;;;;;5081697;28;20052;-74
2024/02/05 02:47:18;;;;;;;30.02;5.47;;;;;;;;;;5087763;28;20052;-73
2024/02/05 02:49:44;;;;;;;26.38;5.65;;;;;;;;;;5076896;28;20044;-74
2024/02/05 02:52:11;;;;;;;34.72;5.82;;;;;;;;;;5062431;28;20110;-74
2024/02/05 02:54:38;;;;;;;42.78;6.88;;;;;;;;;;5072958;28;20041;-73
2024/02/05 02:57:04;;;;;;;28.35;5.43;;;;;;;;;;5072763;28;20711;-74
2024/02/05 02:59:31;;;;;;;25.90;5.68;;;;;;;;;;5090707;28;20036;-74
2024/02/05 03:01:58;;;;;;;26.50;5.80;;;;;;;;;;5071698;28;20147;-74
2024/02/05 03:04:25;;;;;;;19.38;4.40;;;;;;;;;;5081484;28;20457;-73
2024/02/05 03:06:52;;;;;;;24.92;5.15;;;;;;;;;;5095051;28;20567;-73
2024/02/05 03:09:18;;;;;;;22.95;5.18;;;;;;;;;;5087878;28;20597;-74
2024/02/05 03:11:44;;;;;;;30.55;6.47;;;;;;;;;;5094100;28;20101;-74
2024/02/05 03:14:11;;;;;;;26.92;5.30;;;;;;;;;;5080625;28;20048;-73
2024/02/05 03:16:37;;;;;;;24.58;5.68;;;;;;;;;;5063159;28;20156;-73
2024/02/05 03:19:04;;;;;;;24.75;5.60;;;;;;;;;;5078641;28;20454;-74
2024/02/05 03:21:31;;;;;;;23.42;5.20;;;;;;;;;;5086760;28;20097;-73
2024/02/05 03:23:57;;;;;;;28.73;6.13;;;;;;;;;;5081336;28;20055;-73
2024/02/05 03:26:23;;;;;;;36.58;6.35;;;;;;;;;;5084858;28;20108;-73
2024/02/05 03:28:50;;;;;;;24.08;5.45;;;;;;;;;;5091344;28;20051;-73
2024/02/05 03:31:17;;;;;;;26.58;5.22;;;;;;;;;;5084655;28;20125;-76
2024/02/05 03:33:43;;;;;;;23.67;5.78;;;;;;;;;;5084700;28;20435;-75
2024/02/05 03:36:10;;;;;;;31.08;6.43;;;;;;;;;;5060237;28;20456;-74
2024/02/05 03:38:36;;;;;;;29.15;6.38;;;;;;;;;;5079692;28;20440;-74
2024/02/05 03:41:02;;;;;;;25.83;5.85;;;;;;;;;;5099085;28;20088;-74
2024/02/05 03:43:29;;;;;;;27.58;5.78;;;;;;;;;;5090518;28;20496;-76
2024/02/05 03:45:55;;;;;;;28.48;5.38;;;;;;;;;;5082793;28;20052;-73
2024/02/05 03:48:22;;;;;;;24.17;6.05;;;;;;;;;;5065719;28;20063;-74
2024/02/05 03:50:49;;;;;;;28.83;5.88;;;;;;;;;;5075542;28;20052;-74
2024/02/05 03:53:15;;;;;;;26.45;6.60;;;;;;;;;;5074812;28;20051;-74
2024/02/05 03:55:41;;;;;;;25.95;6.22;;;;;;;;;;5067970;28;20098;-74
2024/02/05 03:58:09;;;;;;;35.95;6.78;;;;;;;;;;5082526;28;20108;-74
2024/02/05 04:00:35;;;;;;;34.70;7.68;;;;;;;;;;5078633;28;20131;-75
2024/02/05 04:03:02;;;;;;;30.50;6.75;;;;;;;;;;5073556;28;20355;-75
2024/02/05 04:05:31;;;;;;;34.67;6.78;;;;;;;;;;5059380;28;20489;-73
2024/02/05 04:07:58;;;;;;;28.35;6.22;;;;;;;;;;5070242;28;20058;-74
2024/02/05 04:10:24;;;;;;;32.88;6.35;;;;;;;;;;5047895;28;20083;-75
2024/02/05 04:12:51;;;;;;;30.48;6.22;;;;;;;;;;5079585;28;20050;-74
2024/02/05 04:15:18;;;;;;;35.05;7.38;;;;;;;;;;5075951;28;20059;-73
2024/02/05 04:17:44;;;;;;;23.75;6.20;;;;;;;;;;5079113;28;20083;-75
2024/02/05 04:20:10;;;;;;;31.13;6.03;;;;;;;;;;5073081;28;20052;-74
2024/02/05 04:22:37;;;;;;;30.83;6.25;;;;;;;;;;5065761;28;20087;-74
2024/02/05 04:25:08;;;;;;;33.40;6.40;;;;;;;;;;5082968;28;20781;-75
2024/02/05 04:27:35;;;;;;;34.65;6.18;;;;;;;;;;5081556;28;20496;-74
2024/02/05 04:30:03;;;;;;;27.00;5.38;;;;;;;;;;5079240;28;20589;-76
2024/02/05 04:32:31;;;;;;;32.42;6.57;;;;;;;;;;5088140;28;20059;-74
2024/02/05 04:34:57;;;;;;;26.02;5.60;;;;;;;;;;5064981;28;20121;-74
2024/02/05 04:37:26;;;;;;;25.30;5.95;;;;;;;;;;5083080;28;20155;-74
2024/02/05 04:39:54;;;;;;;27.00;5.78;;;;;;;;;;5073308;28;20067;-74
2024/02/05 04:42:21;;;;;;;29.97;6.37;;;;;;;;;;5088932;28;20452;-74
2024/02/05 04:44:47;;;;;;;24.67;5.65;;;;;;;;;;5081295;28;20170;-74
2024/02/05 04:47:14;;;;;;;33.22;6.43;;;;;;;;;;5069064;28;20464;-74
2024/02/05 04:49:41;;;;;;;26.02;6.82;;;;;;;;;;5086047;28;20205;-74
2024/02/05 04:52:09;;;;;;;29.02;6.15;;;;;;;;;;5069677;28;20056;-76
2024/02/05 04:54:37;;;;;;;31.75;5.70;;;;;;;;;;5073441;28;20047;-73
2024/02/05 04:57:03;;;;;;;30.92;6.15;;;;;;;;;;5074590;28;20110;-74
2024/02/05 04:59:30;;;;;;;23.80;5.72;;;;;;;;;;5063600;28;20055;-74
2024/02/05 05:01:56;;;;;;;34.55;7.00;;;;;;;;;;5076635;28;20528;-74
2024/02/05 05:04:22;;;;;;;29.52;6.72;;;;;;;;;;5058178;28;20048;-73
2024/02/05 05:06:50;;;;;;;30.77;6.72;;;;;;;;;;5066363;28;20052;-74
2024/02/05 05:09:16;;;;;;;25.33;5.68;;;;;;;;;;5056063;28;20076;-75
2024/02/05 05:11:43;;;;;;;24.30;5.55;;;;;;;;;;5092874;28;20087;-74
2024/02/05 05:14:09;;;;;;;31.55;6.70;;;;;;;;;;5067950;28;20044;-75
2024/02/05 05:16:35;;;;;;;33.17;6.35;;;;;;;;;;5061446;28;20488;-75
2024/02/05 05:19:02;;;;;;;27.17;6.03;;;;;;;;;;5078387;28;20040;-75
2024/02/05 05:21:30;;;;;;;26.15;6.03;;;;;;;;;;5074017;28;20059;-74
2024/02/05 05:23:56;;;;;;;26.10;5.57;;;;;;;;;;5079281;28;20040;-74
2024/02/05 05:26:23;;;;;;;23.95;5.90;;;;;;;;;;5063925;28;20052;-76
2024/02/05 05:28:51;;;;;;;25.42;5.88;;;;;;;;;;5083144;28;20118;-73
2024/02/05 05:31:17;;;;;;;24.90;6.00;;;;;;;;;;5065296;28;20075;-74
2024/02/05 05:33:45;;;;;;;34.40;6.68;;;;;;;;;;5080440;28;20377;-75
2024/02/05 05:36:11;;;;;;;32.90;6.40;;;;;;;;;;5082502;28;20787;-74
2024/02/05 05:38:38;;;;;;;25.00;4.93;;;;;;;;;;5075274;28;20119;-74
2024/02/05 05:41:04;;;;;;;27.48;5.63;;;;;;;;;;5084493;28;20090;-74
2024/02/05 05:43:31;;;;;;;22.35;5.05;;;;;;;;;;5085153;28;20052;-74
2024/02/05 05:45:57;;;;;;;25.08;7.13;;;;;;;;;;5061217;28;20036;-75
2024/02/05 05:48:24;;;;;;;29.45;6.00;;;;;;;;;;5067123;28;20040;-75
2024/02/05 05:50:51;;;;;;;28.83;5.47;;;;;;;;;;5075397;28;20063;-73
2024/02/05 05:53:18;;;;;;;21.67;5.35;;;;;;;;;;5065337;28;20080;-74
2024/02/05 05:55:47;;;;;;;23.30;5.45;;;;;;;;;;5063864;28;20075;-75
2024/02/05 05:58:14;;;;;;;29.58;5.80;;;;;;;;;;5074025;28;20086;-74
2024/02/05 06:00:40;;;;;;;22.60;6.68;;;;;;;;;;5090611;28;20058;-75
2024/02/05 06:03:07;;;;;;;27.23;5.93;;;;;;;;;;5077285;28;20056;-76
2024/02/05 06:05:34;;;;;;;24.63;5.63;;;;;;;;;;5062211;28;20550;-76
2024/02/05 06:08:00;;;;;;;30.52;6.15;;;;;;;;;;5065669;28;20044;-75
2024/02/05 06:10:27;;;;;;;24.98;5.53;;;;;;;;;;5070975;28;20476;-74
2024/02/05 06:12:54;;;;;;;23.73;5.55;;;;;;;;;;5083856;28;20344;-74
2024/02/05 06:15:20;;;;;;;35.15;5.82;;;;;;;;;;5079122;28;20102;-76
2024/02/05 06:17:47;;;;;;;27.33;6.03;;;;;;;;;;5077728;28;20130;-76
2024/02/05 06:20:13;;;;;;;30.88;6.00;;;;;;;;;;5078795;28;20087;-74
2024/02/05 06:22:43;;;;;;;21.17;5.30;;;;;;;;;;5072161;28;20048;-74
2024/02/05 06:25:10;;;;;;;25.35;5.20;;;;;;;;;;5080980;28;20052;-77
2024/02/05 06:27:36;;;;;;;24.75;5.38;;;;;;;;;;5088882;28;20093;-74
2024/02/05 06:30:03;;;;;;;24.10;5.85;;;;;;;;;;5086822;28;20447;-74
2024/02/05 06:32:29;;;;;;;23.88;5.15;;;;;;;;;;5079948;28;20059;-74
2024/02/05 06:34:56;;;;;;;27.20;4.95;;;;;;;;;;5084227;28;21249;-74
2024/02/05 06:37:23;;;;;;;24.63;5.97;;;;;;;;;;5083757;28;20080;-75
2024/02/05 06:39:49;;;;;;;32.80;6.03;;;;;;;;;;5087147;28;20048;-75
2024/02/05 06:42:16;;;;;;;36.17;6.40;;;;;;;;;;5081540;28;20051;-75
2024/02/05 06:44:45;;;;;;;24.05;5.68;;;;;;;;;;5075899;28;20048;-76
2024/02/05 06:47:11;;;;;;;27.70;5.28;;;;;;;;;;5071992;28;20051;-74
2024/02/05 06:49:38;;;;;;;21.50;5.28;;;;;;;;;;5074100;28;20110;-74
2024/02/05 06:52:05;;;;;;;29.75;6.15;;;;;;;;;;5066393;28;20048;-75
2024/02/05 06:54:32;;;;;;;28.42;5.68;;;;;;;;;;5076548;28;20766;-74
2024/02/05 06:57:02;;;;;;;30.27;6.30;;;;;;;;;;5088667;28;20060;-74
2024/02/05 06:59:29;;;;;;;25.77;6.45;;;;;;;;;;5092827;28;20051;-74
2024/02/05 07:01:55;;;;;;;20.45;4.97;;;;;;;;;;5067216;28;20052;-75
2024/02/05 07:04:22;;;;;;;25.25;5.18;;;;;;;;;;5077843;28;20129;-74
2024/02/05 07:06:48;;;;;;;24.08;6.32;;;;;;;;;;5049991;28;20047;-75
2024/02/05 07:09:15;;;;;;;28.20;6.05;;;;;;;;;;5066779;28;21210;-75
2024/02/05 07:11:42;;;;;;;31.95;6.05;;;;;;;;;;5097069;28;20043;-75
2024/02/05 07:14:08;;;;;;;35.78;6.82;;;;;;;;;;5085661;28;20055;-74
2024/02/05 07:16:35;;;;;;;35.55;6.20;;;;;;;;;;5084548;28;20101;-78
2024/02/05 07:19:01;;;;;;;27.88;6.40;;;;;;;;;;5080768;28;20167;-74
2024/02/05 07:21:29;;;;;;;25.20;5.38;;;;;;;;;;5086745;28;20380;-74
2024/02/05 07:23:56;;;;;;;21.60;6.03;;;;;;;;;;5059603;28;20040;-74
2024/02/05 07:26:22;;;;;;;27.50;5.18;;;;;;;;;;5064217;28;20051;-75
2024/02/05 07:28:49;;;;;;;28.80;6.95;;;;;;;;;;5077778;28;20488;-74
2024/02/05 07:31:15;;;;;;;20.83;5.10;;;;;;;;;;5066379;28;20492;-75
2024/02/05 07:33:42;;;;;;;19.70;5.13;;;;;;;;;;5068984;28;20130;-74
2024/02/05 07:36:09;;;;;;;23.05;5.00;;;;;;;;;;5081196;28;20060;-74
2024/02/05 07:38:38;;;;;;;28.48;5.40;;;;;;;;;;5077092;28;20040;-75
2024/02/05 07:41:04;;;;;;;26.25;6.25;;;;;;;;;;5054069;28;20076;-74
2024/02/05 07:43:31;;;;;;;28.05;5.95;;;;;;;;;;5086271;28;20108;-73
2024/02/05 07:45:58;;;;;;;25.63;6.32;;;;;;;;;;5090581;28;20078;-73
2024/02/05 07:48:27;;;;;;;29.77;5.85;;;;;;;;;;5087386;28;20052;-73
2024/02/05 07:50:54;;;;;;;22.95;5.68;;;;;;;;;;5078123;28;20464;-73
2024/02/05 07:53:21;;;;;;;22.88;6.35;;;;;;;;;;5080855;28;20048;-75
2024/02/05 07:55:50;;;;;;;24.17;6.05;;;;;;;;;;5090415;28;20040;-74
2024/02/05 07:58:16;;;;;;;31.10;5.97;;;;;;;;;;5061630;28;20670;-74
2024/02/05 08:00:42;;;;;;;26.77;6.28;;;;;;;;;;5067510;28;20052;-75
2024/02/05 08:03:12;;;;;;;23.88;5.55;;;;;;;;;;5067920;28;20075;-74
2024/02/05 08:05:38;;;;;;;26.83;5.68;;;;;;;;;;5059180;28;20412;-73
2024/02/05 08:08:05;;;;;;;29.70;6.28;;;;;;;;;;5063157;28;20044;-74
2024/02/05 08:10:31;;;;;;;29.42;6.00;;;;;;;;;;5085396;28;20110;-73
2024/02/05 08:12:58;;;;;;;29.60;5.30;;;;;;;;;;5072695;28;20040;-74
2024/02/05 08:15:24;;;;;;;26.52;5.53;;;;;;;;;;5073876;28;20416;-75
2024/02/05 08:17:51;;;;;;;21.17;5.65;;;;;;;;;;5064070;28;20052;-76
2024/02/05 08:20:18;;;;;;;20.85;6.13;;;;;;;;;;5082835;28;20113;-74
2024/02/05 08:22:45;;;;;;;20.45;5.82;;;;;;;;;;5058252;28;20436;-74
2024/02/05 08:25:12;;;;;;;23.90;5.30;;;;;;;;;;5066011;28;20055;-73
2024/02/05 08:27:38;;;;;;;21.30;5.80;;;;;;;;;;5062572;28;20566;-73
2024/02/05 08:30:05;;;;;;;26.08;6.65;;;;;;;;;;5085542;28;20074;-77
2024/02/05 08:32:32;;;;;;;32.05;6.45;;;;;;;;;;5070838;28;20869;-71
2024/02/05 08:34:58;;;;;;;20.35;5.95;;;;;;;;;;5073370;28;20735;-76
2024/02/05 08:37:24;;;;;;;26.23;6.30;;;;;;;;;;5056074;28;20044;-76
2024/02/05 08:39:52;;;;;;;28.90;6.75;;;;;;;;;;5061336;28;20138;-74
2024/02/05 08:42:19;;;;;;;29.23;6.68;;;;;;;;;;5064563;28;20113;-73
2024/02/05 08:44:58;;;;;;;22.50;6.22;;;;;;;;;;5082555;28;20044;-73
2024/02/05 08:47:29;;;;;;;28.38;6.55;;;;;;;;;;5086343;28;20036;-76
2024/02/05 08:49:55;;;;;;;28.48;7.18;;;;;;;;;;5082611;28;20044;-74
2024/02/05 08:52:22;;;;;;;27.25;7.25;;;;;;;;;;5083334;28;20066;-74
2024/02/05 08:54:49;;;;;;;24.80;8.43;;;;;;;;;;5051338;28;20056;-74
2024/02/05 08:57:16;;;;;;;29.67;9.02;;;;;;;;;;5083678;28;20086;-73
2024/02/05 08:59:42;;;;;;;25.95;8.23;;;;;;;;;;5078179;28;20071;-75
2024/02/05 09:02:10;;;;;;;25.88;7.63;;;;;;;;;;5064623;28;20047;-74
2024/02/05 09:04:36;;;;;;;23.52;7.93;;;;;;;;;;5070584;28;20048;-75
2024/02/05 09:07:03;;;;;;;33.50;8.75;;;;;;;;;;5091451;28;20082;-74
2024/02/05 09:09:30;;;;;;;29.48;8.68;;;;;;;;;;5064527;28;20039;-74
2024/02/05 09:11:57;;;;;;;26.65;8.32;;;;;;;;;;5083318;28;20758;-74
2024/02/05 09:14:33;;;;;;;30.30;9.02;;;;;;;;;;5083906;28;20084;-75
2024/02/05 09:16:59;;;;;;;33.20;9.30;;;;;;;;;;5084445;28;20044;-74
2024/02/05 09:19:26;;;;;;;28.58;9.30;;;;;;;;;;5064807;28;20538;-74
2024/02/05 09:21:54;;;;;;;34.17;11.10;;;;;;;;;;5083327;28;20074;-75
2024/02/05 09:24:23;;;;;;;27.95;9.02;;;;;;;;;;5061441;28;20052;-74
2024/02/05 09:26:49;;;;;;;29.30;8.48;;;;;;;;;;5065796;28;20107;-74
2024/02/05 09:29:16;;;;;;;35.03;9.05;;;;;;;;;;5064849;28;20496;-75
2024/02/05 09:31:42;;;;;;;37.08;9.32;;;;;;;;;;5069809;28;20771;-75
2024/02/05 09:34:09;;;;;;;30.55;9.98;;;;;;;;;;5073643;28;20062;-75
2024/02/05 09:36:36;;;;;;;24.27;8.00;;;;;;;;;;5079644;28;20047;-75
2024/02/05 09:39:04;;;;;;;23.45;8.13;;;;;;;;;;5067772;28;20088;-76
2024/02/05 09:41:32;;;;;;;25.48;7.63;;;;;;;;;;5069989;28;20381;-74
2024/02/05 09:43:59;;;;;;;32.25;7.93;;;;;;;;;;5064785;28;20143;-74
2024/02/05 09:46:26;;;;;;;23.73;6.53;;;;;;;;;;5082958;28;20603;-73
2024/02/05 09:48:54;;;;;;;21.90;7.35;;;;;;;;;;5091129;28;20071;-74
2024/02/05 09:51:22;;;;;;;24.80;7.43;;;;;;;;;;5066636;28;20518;-75
2024/02/05 09:53:49;;;;;;;26.40;7.63;;;;;;;;;;5068124;28;20450;-74
2024/02/05 09:56:17;;;;;;;25.35;6.63;;;;;;;;;;5075766;28;20280;-73
2024/02/05 09:58:43;;;;;;;35.92;7.63;;;;;;;;;;5078092;28;20071;-74
2024/02/05 10:01:11;;;;;;;20.77;5.88;;;;;;;;;;5068629;28;20780;-75
2024/02/05 10:03:38;;;;;;;24.08;5.88;;;;;;;;;;5068968;28;20048;-74
2024/02/05 10:06:07;;;;;;;31.08;6.57;;;;;;;;;;5088258;28;20044;-74
2024/02/05 10:08:34;;;;;;;25.50;6.55;;;;;;;;;;5069780;28;20040;-74
2024/02/05 10:11:02;;;;;;;33.38;7.22;;;;;;;;;;5072983;28;20040;-74
2024/02/05 10:13:33;;;;;;;22.97;5.70;;;;;;;;;;5078188;28;20117;-75
2024/02/05 10:15:59;;;;;;;28.52;6.43;;;;;;;;;;5082384;28;20378;-74
2024/02/05 10:18:35;;;;;;;27.83;6.03;;;;;;;;;;5076600;28;20044;-74
2024/02/05 10:21:03;;;;;;;19.98;5.25;;;;;;;;;;5084858;28;20126;-73
2024/02/05 10:23:30;;;;;;;27.63;5.82;;;;;;;;;;5059409;28;20117;-74
2024/02/05 10:25:57;;;;;;;26.55;5.38;;;;;;;;;;5067380;28;20044;-74
2024/02/05 10:28:23;;;;;;;22.98;4.75;;;;;;;;;;5065696;28;20640;-75
2024/02/05 10:30:53;;;;;;;22.35;4.78;;;;;;;;;;5080690;28;20812;-74
2024/02/05 10:33:23;;;;;;;30.40;5.82;;;;;;;;;;5089736;28;20063;-74
2024/02/05 10:35:53;;;;;;;23.73;5.07;;;;;;;;;;5087522;28;20054;-73
2024/02/05 10:38:22;;;;;;;17.83;4.00;;;;;;;;;;5092327;28;20671;-74
2024/02/05 10:40:51;;;;;;;22.05;5.88;;;;;;;;;;5071353;28;20171;-74
2024/02/05 11:16:31;;;;;;;26.17;5.07;;;;;;;;;;5120637;27;20151;-81
2024/02/05 11:19:05;;;;;;;27.63;5.70;;;;;;;;;;4825760;27;8599381;-83
2024/02/05 11:21:38;;;;;;;29.73;6.97;;;;;;;;;;5077149;28;20756;-82
2024/02/05 11:24:06;;;;;;;22.55;6.00;;;;;;;;;;5068755;28;20049;-82
2024/02/05 11:26:34;;;;;;;26.00;6.40;;;;;;;;;;5070857;28;20052;-83
2024/02/05 11:29:01;;;;;;;20.63;5.57;;;;;;;;;;5057616;28;20135;-82
2024/02/05 11:31:30;;;;;;;27.77;6.85;;;;;;;;;;5067611;28;20094;-89
2024/02/05 11:33:58;;;;;;;37.28;7.70;;;;;;;;;;5078427;28;20075;-86
2024/02/05 11:36:27;;;;;;;25.52;7.10;;;;;;;;;;5067637;28;20103;-83
2024/02/05 11:39:09;;;;;;;28.67;7.57;;;;;;;;;;5071680;28;20108;-87
2024/02/05 11:45:14;;;;;;;24.48;8.27;;;;;;;;;;5063381;28;20043;-85
2024/02/05 11:47:42;;;;;;;25.45;8.07;;;;;;;;;;5056392;28;20072;-87
2024/02/05 11:50:09;;;;;;;35.23;9.03;;;;;;;;;;5071364;28;20052;-88
2024/02/05 11:52:39;;;;;;;23.23;6.95;;;;;;;;;;5050262;28;20049;-86
2024/02/05 11:55:15;;;;;;;32.83;8.30;;;;;;;;;;5059330;28;20475;-88
2024/02/05 11:57:45;;;;;;;27.25;8.15;;;;;;;;;;5067557;28;20049;-88
2024/02/05 12:00:17;;;;;;;32.92;9.82;;;;;;;;;;5069409;28;20040;-85
2024/02/05 12:02:45;;;;;;;21.88;8.07;;;;;;;;;;5053609;28;20084;-87
2024/02/05 12:05:12;;;;;;;26.23;9.33;;;;;;;;;;5060868;28;20072;-87
2024/02/05 12:07:45;;;;;;;27.20;8.75;;;;;;;;;;5073643;28;20357;-87
2024/02/05 12:10:13;;;;;;;27.75;9.32;;;;;;;;;;5062511;28;20179;-85
2024/02/05 12:12:42;;;;;;;25.08;8.68;;;;;;;;;;5037414;28;20101;-86
2024/02/05 12:15:19;;;;;;;25.27;9.25;;;;;;;;;;5058143;28;20048;-87
2024/02/05 12:17:50;;;;;;;28.17;9.52;;;;;;;;;;5043965;28;20059;-85
2024/02/05 12:20:19;;;;;;;25.45;9.18;;;;;;;;;;5048021;28;20632;-87
2024/02/05 12:22:47;;;;;;;24.38;9.02;;;;;;;;;;5032025;28;20079;-86
2024/02/05 12:25:16;;;;;;;28.13;9.02;;;;;;;;;;5046096;28;20659;-87
2024/02/05 12:28:05;;;;;;;24.40;8.43;;;;;;;;;;5052393;28;20072;-86
2024/02/05 12:30:32;;;;;;;24.75;9.40;;;;;;;;;;5042726;28;20056;-88
2024/02/05 12:33:00;;;;;;;34.45;9.43;;;;;;;;;;5029664;28;20400;-86
2024/02/05 12:35:28;;;;;;;;;;;;;;;;;;5041213;28;20071;-86
2024/02/05 12:37:55;;;;;;;33.03;10.02;;;;;;;;;;5059876;28;19928;-86
2024/02/05 12:40:22;;;;;;;27.92;10.35;;;;;;;;;;5020610;28;20101;-87
2024/02/05 12:42:49;;;;;;;26.98;9.23;;;;;;;;;;5061343;28;20490;-87
2024/02/05 12:45:19;;;;;;;29.40;9.63;;;;;;;;;;5065656;28;20052;-85
2024/02/05 12:47:48;;;;;;;25.45;9.02;;;;;;;;;;5033375;28;20052;-86
2024/02/05 12:50:15;;;;;;;28.02;10.20;;;;;;;;;;5017817;28;20048;-87
2024/02/05 12:52:44;;;;;;;24.70;9.00;;;;;;;;;;5038515;28;20053;-88
2024/02/05 12:55:11;;;;;;;;;;;;;;;;;;5052306;28;20041;-89
2024/02/05 12:57:38;;;;;;;21.25;8.15;;;;;;;;;;5008883;28;19971;-86
2024/02/05 13:00:04;;;;;;;30.00;8.77;;;;;;;;;;5038890;28;20081;-89
2024/02/05 13:02:31;;;;;;;25.40;8.07;;;;;;;;;;5022028;28;20489;-87
2024/02/05 13:04:58;;;;;;;19.23;7.93;;;;;;;;;;5020363;28;20064;-88
2024/02/05 13:07:26;;;;;;;21.58;8.05;;;;;;;;;;5023612;28;20057;-87
2024/02/05 13:09:53;;;;;;;19.80;7.90;;;;;;;;;;5020263;28;20057;-88
2024/02/05 13:12:20;;;;;;;27.42;7.75;;;;;;;;;;5027569;28;20053;-87
2024/02/05 13:14:46;;;;;;;21.50;6.95;;;;;;;;;;5039633;28;20089;-88
2024/02/05 13:17:13;;;;;;;27.15;8.25;;;;;;;;;;5021867;28;20041;-88
2024/02/05 13:19:40;;;;;;;29.77;7.38;;;;;;;;;;5022818;28;20041;-89
2024/02/05 13:22:07;;;;;;;19.20;6.45;;;;;;;;;;5025216;28;20513;-88
2024/02/05 13:24:35;;;;;;;22.05;7.15;;;;;;;;;;5009546;28;20354;-86
2024/02/05 13:27:02;;;;;;;23.75;6.82;;;;;;;;;;5020787;28;20060;-87
2024/02/05 13:29:29;;;;;;;31.38;7.13;;;;;;;;;;5025179;28;20128;-86
2024/02/05 13:31:55;;;;;;;25.60;6.45;;;;;;;;;;5020928;28;20045;-88
2024/02/05 13:34:26;;;;;;;25.00;7.20;;;;;;;;;;5022374;28;20049;-87
2024/02/05 13:36:53;;;;;;;26.33;7.20;;;;;;;;;;5028516;28;20053;-88
2024/02/05 13:39:22;;;;;;;22.85;5.88;;;;;;;;;;5014916;28;20045;-87
2024/02/05 13:41:49;;;;;;;;;;;;;;;;;;5029187;28;20136;-89
2024/02/05 13:44:18;;;;;;;24.77;6.80;;;;;;;;;;5034082;28;19925;-88
2024/02/05 13:46:45;;;;;;;20.63;7.05;;;;;;;;;;5046784;28;20107;-86
2024/02/05 13:49:11;;;;;;;30.67;6.05;;;;;;;;;;5013685;28;20106;-88
2024/02/05 13:54:27;;;;;;;25.50;7.63;;;;;;;;;;5158793;23;20057;-77
2024/02/05 13:56:54;;;;;;;23.42;7.30;;;;;;;;;;4986808;28;20077;-77
2024/02/05 13:59:20;;;;;;;25.90;8.50;;;;;;;;;;5006594;28;20475;-77
2024/02/05 14:01:51;;;;;;;22.30;6.60;;;;;;;;;;4961024;28;20046;-76
2024/02/05 14:04:18;;;;;;;27.40;7.63;;;;;;;;;;4857091;28;20541;-75
2024/02/05 14:06:44;;;;;;;33.63;7.45;;;;;;;;;;5004677;28;20111;-77
2024/02/05 14:09:11;;;;;;;28.90;6.97;;;;;;;;;;4824621;28;20088;-76
2024/02/05 14:11:38;;;;;;;26.65;9.07;;;;;;;;;;4966706;28;20874;-75
2024/02/05 14:14:04;;;;;;;22.70;7.88;;;;;;;;;;4860718;28;20065;-77
2024/02/05 14:16:31;;;;;;;25.83;7.00;;;;;;;;;;4995355;28;20054;-76
2024/02/05 14:18:57;;;;;;;26.92;6.07;;;;;;;;;;4975383;28;20055;-76
2024/02/05 14:21:24;;;;;;;25.35;5.90;;;;;;;;;;4905904;28;20073;-76
2024/02/05 14:23:53;;;;;;;25.92;6.32;;;;;;;;;;4875583;28;20046;-77
2024/02/05 14:26:23;;;;;;;14.82;6.00;;;;;;;;;;4982406;28;20045;-76
2024/02/05 14:28:50;;;;;;;26.25;7.72;;;;;;;;;;4827773;28;20045;-76
2024/02/05 14:31:16;;;;;;;23.63;6.40;;;;;;;;;;5159089;23;20053;-76
2024/02/05 14:33:43;;;;;;;21.65;6.45;;;;;;;;;;5004586;28;20132;-77
2024/02/05 14:36:12;;;;;;;20.63;6.18;;;;;;;;;;5006000;28;20415;-76
2024/02/05 14:38:42;;;;;;;29.25;6.85;;;;;;;;;;4988899;28;20053;-77
2024/02/05 14:41:08;;;;;;;23.50;6.68;;;;;;;;;;5004443;28;20400;-76
2024/02/05 14:43:34;;;;;;;21.90;6.40;;;;;;;;;;5004166;28;20489;-76
2024/02/05 14:46:01;;;;;;;22.40;6.20;;;;;;;;;;5006118;28;20053;-77
2024/02/05 14:48:34;;;;;;;20.30;5.70;;;;;;;;;;5004371;28;20052;-75
2024/02/05 14:51:01;;;;;;;20.75;5.45;;;;;;;;;;5004021;28;20104;-78
2024/02/05 14:53:27;;;;;;;24.63;5.63;;;;;;;;;;5005046;28;20050;-77
2024/02/05 14:55:54;;;;;;;20.00;5.50;;;;;;;;;;5004476;28;21145;-77
2024/02/05 14:58:21;;;;;;;20.65;5.53;;;;;;;;;;4972111;28;20042;-77
2024/02/05 15:00:47;;;;;;;17.27;4.82;;;;;;;;;;4995355;28;20574;-78
2024/02/05 15:03:14;;;;;;;19.83;5.35;;;;;;;;;;5005884;28;20088;-76
2024/02/05 15:05:48;;;;;;;13.55;4.70;;;;;;;;;;5006431;28;20061;-77
2024/02/05 15:08:20;;;;;;;16.25;5.50;;;;;;;;;;5004820;28;20571;-77
2024/02/05 15:11:00;;;;;;;16.05;5.65;;;;;;;;;;4988846;28;20060;-77